sensor_id;sensor_type;location;lat;lon;timestamp;P1;durP1;ratioP1;P2;durP2;ratioP2
21099;SDS011;10708;50.824;4.408;2023-05-10T00:00:36;469.77;;;181.27;;
21099;SDS011;10708;50.824;4.408;2023-05-10T00:05:38;474.63;;;182.77;;
21099;SDS011;10708;50.824;4.408;2023-05-10T00:10:40;478.93;;;178.03;;
21099;SDS011;10708;50.824;4.408;2023-05-10T00:15:43;487.30;;;186.33;;
21099;SDS011;10708;50.824;4.408;2023-05-10T00:20:46;495.20;;;184.57;;
21099;SDS011;10708;50.824;4.408;2023-05-10T00:25:49;490.87;;;181.00;;
21099;SDS011;10708;50.824;4.408;2023-05-10T00:30:52;491.73;;;181.50;;
21099;SDS011;10708;50.824;4.408;2023-05-10T00:35:54;485.37;;;185.20;;
21099;SDS011;10708;50.824;4.408;2023-05-10T00:40:56;488.73;;;185.33;;
21099;SDS011;10708;50.824;4.408;2023-05-10T00:46:00;494.43;;;186.10;;
21099;SDS011;10708;50.824;4.408;2023-05-10T00:51:02;503.27;;;176.70;;
21099;SDS011;10708;50.824;4.408;2023-05-10T00:56:04;486.80;;;184.47;;
21099;SDS011;10708;50.824;4.408;2023-05-10T01:01:08;492.20;;;180.70;;
21099;SDS011;10708;50.824;4.408;2023-05-10T01:06:11;495.67;;;184.27;;
21099;SDS011;10708;50.824;4.408;2023-05-10T01:11:13;485.97;;;179.77;;
21099;SDS011;10708;50.824;4.408;2023-05-10T01:16:17;499.27;;;181.27;;
21099;SDS011;10708;50.824;4.408;2023-05-10T01:21:21;492.10;;;176.97;;
21099;SDS011;10708;50.824;4.408;2023-05-10T01:37:31;484.13;;;193.30;;
21099;SDS011;10708;50.824;4.408;2023-05-10T01:42:43;491.63;;;192.40;;
21099;SDS011;10708;50.824;4.408;2023-05-10T01:47:54;536.90;;;186.87;;
21099;SDS011;10708;50.824;4.408;2023-05-10T01:53:06;544.10;;;193.93;;
21099;SDS011;10708;50.824;4.408;2023-05-10T01:58:10;527.00;;;189.03;;
21099;SDS011;10708;50.824;4.408;2023-05-10T02:03:17;511.73;;;186.37;;
21099;SDS011;10708;50.824;4.408;2023-05-10T02:08:22;526.80;;;182.63;;
21099;SDS011;10708;50.824;4.408;2023-05-10T02:13:25;518.77;;;187.10;;
21099;SDS011;10708;50.824;4.408;2023-05-10T02:18:30;522.30;;;189.57;;
21099;SDS011;10708;50.824;4.408;2023-05-10T02:23:35;509.57;;;183.70;;
21099;SDS011;10708;50.824;4.408;2023-05-10T02:28:38;518.10;;;195.73;;
21099;SDS011;10708;50.824;4.408;2023-05-10T02:33:45;522.13;;;191.97;;
21099;SDS011;10708;50.824;4.408;2023-05-10T02:38:49;508.07;;;187.33;;
21099;SDS011;10708;50.824;4.408;2023-05-10T02:43:55;506.30;;;186.97;;
21099;SDS011;10708;50.824;4.408;2023-05-10T02:49:02;522.47;;;190.47;;
21099;SDS011;10708;50.824;4.408;2023-05-10T02:54:06;509.90;;;186.77;;
21099;SDS011;10708;50.824;4.408;2023-05-10T02:59:12;504.90;;;189.40;;
21099;SDS011;10708;50.824;4.408;2023-05-10T03:04:15;496.43;;;186.67;;
21099;SDS011;10708;50.824;4.408;2023-05-10T03:09:17;517.13;;;195.50;;
21099;SDS011;10708;50.824;4.408;2023-05-10T03:14:23;521.77;;;190.80;;
21099;SDS011;10708;50.824;4.408;2023-05-10T03:19:36;502.90;;;181.97;;
21099;SDS011;10708;50.824;4.408;2023-05-10T03:24:44;498.43;;;189.77;;
21099;SDS011;10708;50.824;4.408;2023-05-10T03:29:48;479.53;;;192.27;;
21099;SDS011;10708;50.824;4.408;2023-05-10T03:34:54;477.73;;;185.57;;
21099;SDS011;10708;50.824;4.408;2023-05-10T03:39:56;504.03;;;193.57;;
21099;SDS011;10708;50.824;4.408;2023-05-10T03:44:58;505.30;;;193.60;;
21099;SDS011;10708;50.824;4.408;2023-05-10T03:50:02;505.13;;;196.57;;
21099;SDS011;10708;50.824;4.408;2023-05-10T03:55:04;485.53;;;194.53;;
21099;SDS011;10708;50.824;4.408;2023-05-10T04:00:08;467.43;;;188.03;;
21099;SDS011;10708;50.824;4.408;2023-05-10T04:05:13;495.30;;;197.20;;
21099;SDS011;10708;50.824;4.408;2023-05-10T04:10:15;512.17;;;195.73;;
21099;SDS011;10708;50.824;4.408;2023-05-10T04:15:17;509.43;;;212.70;;
21099;SDS011;10708;50.824;4.408;2023-05-10T04:20:21;508.67;;;197.10;;
21099;SDS011;10708;50.824;4.408;2023-05-10T04:25:23;497.77;;;193.73;;
21099;SDS011;10708;50.824;4.408;2023-05-10T04:30:25;513.57;;;200.40;;
21099;SDS011;10708;50.824;4.408;2023-05-10T04:35:30;506.70;;;196.03;;
21099;SDS011;10708;50.824;4.408;2023-05-10T04:40:32;518.53;;;197.10;;
21099;SDS011;10708;50.824;4.408;2023-05-10T04:45:34;508.17;;;198.73;;
21099;SDS011;10708;50.824;4.408;2023-05-10T04:50:38;525.93;;;219.07;;
21099;SDS011;10708;50.824;4.408;2023-05-10T04:55:40;511.27;;;200.00;;
21099;SDS011;10708;50.824;4.408;2023-05-10T05:00:42;519.20;;;200.57;;
21099;SDS011;10708;50.824;4.408;2023-05-10T05:05:46;524.00;;;203.03;;
21099;SDS011;10708;50.824;4.408;2023-05-10T05:10:48;529.57;;;203.07;;
21099;SDS011;10708;50.824;4.408;2023-05-10T05:15:50;530.47;;;200.27;;
21099;SDS011;10708;50.824;4.408;2023-05-10T05:20:55;529.57;;;202.47;;
21099;SDS011;10708;50.824;4.408;2023-05-10T05:25:57;540.90;;;199.90;;
21099;SDS011;10708;50.824;4.408;2023-05-10T05:30:59;507.90;;;203.57;;
21099;SDS011;10708;50.824;4.408;2023-05-10T05:36:03;499.87;;;201.47;;
21099;SDS011;10708;50.824;4.408;2023-05-10T05:41:06;495.53;;;202.20;;
21099;SDS011;10708;50.824;4.408;2023-05-10T05:46:08;493.90;;;195.07;;
21099;SDS011;10708;50.824;4.408;2023-05-10T05:51:11;475.73;;;197.20;;
21099;SDS011;10708;50.824;4.408;2023-05-10T05:56:13;482.63;;;203.33;;
21099;SDS011;10708;50.824;4.408;2023-05-10T06:01:15;488.93;;;199.23;;
21099;SDS011;10708;50.824;4.408;2023-05-10T06:06:19;476.43;;;198.50;;
21099;SDS011;10708;50.824;4.408;2023-05-10T06:11:21;478.93;;;196.73;;
21099;SDS011;10708;50.824;4.408;2023-05-10T06:16:23;494.17;;;201.83;;
21099;SDS011;10708;50.824;4.408;2023-05-10T06:21:26;486.33;;;204.50;;
21099;SDS011;10708;50.824;4.408;2023-05-10T06:26:28;493.27;;;198.93;;
21099;SDS011;10708;50.824;4.408;2023-05-10T06:31:30;500.50;;;191.43;;
21099;SDS011;10708;50.824;4.408;2023-05-10T06:36:34;487.73;;;201.97;;
21099;SDS011;10708;50.824;4.408;2023-05-10T06:41:36;492.80;;;202.47;;
21099;SDS011;10708;50.824;4.408;2023-05-10T06:46:38;497.27;;;204.27;;
21099;SDS011;10708;50.824;4.408;2023-05-10T06:51:42;492.63;;;198.37;;
21099;SDS011;10708;50.824;4.408;2023-05-10T06:56:45;504.93;;;208.77;;
21099;SDS011;10708;50.824;4.408;2023-05-10T07:01:47;502.10;;;198.67;;
21099;SDS011;10708;50.824;4.408;2023-05-10T07:06:50;497.67;;;206.23;;
21099;SDS011;10708;50.824;4.408;2023-05-10T07:11:52;503.23;;;209.17;;
21099;SDS011;10708;50.824;4.408;2023-05-10T07:16:54;503.93;;;210.87;;
21099;SDS011;10708;50.824;4.408;2023-05-10T07:21:58;503.13;;;202.20;;
21099;SDS011;10708;50.824;4.408;2023-05-10T07:27:00;487.27;;;210.43;;
21099;SDS011;10708;50.824;4.408;2023-05-10T07:32:03;488.27;;;207.10;;
21099;SDS011;10708;50.824;4.408;2023-05-10T07:37:06;496.20;;;210.93;;
21099;SDS011;10708;50.824;4.408;2023-05-10T07:42:08;500.30;;;204.40;;
21099;SDS011;10708;50.824;4.408;2023-05-10T07:47:11;491.43;;;205.23;;
21099;SDS011;10708;50.824;4.408;2023-05-10T07:52:14;495.83;;;203.20;;
21099;SDS011;10708;50.824;4.408;2023-05-10T07:57:17;481.00;;;203.13;;
21099;SDS011;10708;50.824;4.408;2023-05-10T08:02:19;498.93;;;201.53;;
21099;SDS011;10708;50.824;4.408;2023-05-10T08:07:23;494.83;;;213.30;;
21099;SDS011;10708;50.824;4.408;2023-05-10T08:12:26;492.00;;;201.77;;
21099;SDS011;10708;50.824;4.408;2023-05-10T08:17:28;483.10;;;197.27;;
21099;SDS011;10708;50.824;4.408;2023-05-10T08:22:31;398.57;;;372.80;;
21099;SDS011;10708;50.824;4.408;2023-05-10T08:27:34;324.10;;;302.70;;
21099;SDS011;10708;50.824;4.408;2023-05-10T08:32:36;276.77;;;258.20;;
21099;SDS011;10708;50.824;4.408;2023-05-10T08:37:40;237.27;;;222.32;;
21099;SDS011;10708;50.824;4.408;2023-05-10T08:42:43;238.95;;;223.98;;
21099;SDS011;10708;50.824;4.408;2023-05-10T08:47:52;215.20;;;201.70;;
21099;SDS011;10708;50.824;4.408;2023-05-10T08:52:57;228.27;;;214.38;;
21099;SDS011;10708;50.824;4.408;2023-05-10T08:58:01;492.87;;;187.57;;
21099;SDS011;10708;50.824;4.408;2023-05-10T09:03:04;513.63;;;193.60;;
21099;SDS011;10708;50.824;4.408;2023-05-10T09:08:09;506.97;;;186.90;;
21099;SDS011;10708;50.824;4.408;2023-05-10T09:13:12;508.37;;;199.20;;
21099;SDS011;10708;50.824;4.408;2023-05-10T09:18:16;498.60;;;183.80;;
21099;SDS011;10708;50.824;4.408;2023-05-10T09:23:19;491.23;;;181.47;;
21099;SDS011;10708;50.824;4.408;2023-05-10T09:28:21;489.67;;;181.00;;
21099;SDS011;10708;50.824;4.408;2023-05-10T09:33:23;487.17;;;188.03;;
21099;SDS011;10708;50.824;4.408;2023-05-10T09:38:28;499.73;;;187.87;;
21099;SDS011;10708;50.824;4.408;2023-05-10T09:43:37;496.70;;;181.83;;
21099;SDS011;10708;50.824;4.408;2023-05-10T09:48:41;495.53;;;177.00;;
21099;SDS011;10708;50.824;4.408;2023-05-10T09:53:46;487.77;;;179.63;;
21099;SDS011;10708;50.824;4.408;2023-05-10T09:59:01;480.60;;;175.37;;
21099;SDS011;10708;50.824;4.408;2023-05-10T10:04:04;483.13;;;179.97;;
21099;SDS011;10708;50.824;4.408;2023-05-10T10:09:09;492.37;;;189.97;;
21099;SDS011;10708;50.824;4.408;2023-05-10T10:14:11;490.90;;;202.30;;
21099;SDS011;10708;50.824;4.408;2023-05-10T10:19:14;496.40;;;180.97;;
21099;SDS011;10708;50.824;4.408;2023-05-10T10:24:18;507.73;;;184.73;;
21099;SDS011;10708;50.824;4.408;2023-05-10T10:29:21;497.60;;;183.27;;
21099;SDS011;10708;50.824;4.408;2023-05-10T10:34:27;516.77;;;202.30;;
21099;SDS011;10708;50.824;4.408;2023-05-10T10:39:33;511.33;;;189.77;;
21099;SDS011;10708;50.824;4.408;2023-05-10T10:44:37;495.97;;;187.13;;
21099;SDS011;10708;50.824;4.408;2023-05-10T10:49:44;497.63;;;184.83;;
21099;SDS011;10708;50.824;4.408;2023-05-10T10:54:53;517.97;;;189.03;;
21099;SDS011;10708;50.824;4.408;2023-05-10T11:00:21;500.00;;;186.30;;
21099;SDS011;10708;50.824;4.408;2023-05-10T11:05:38;489.27;;;180.73;;
21099;SDS011;10708;50.824;4.408;2023-05-10T11:10:53;496.97;;;182.40;;
21099;SDS011;10708;50.824;4.408;2023-05-10T11:21:12;512.40;;;183.03;;
21099;SDS011;10708;50.824;4.408;2023-05-10T11:26:18;524.43;;;192.73;;
21099;SDS011;10708;50.824;4.408;2023-05-10T11:31:23;532.23;;;195.77;;
21099;SDS011;10708;50.824;4.408;2023-05-10T11:36:27;546.47;;;198.83;;
21099;SDS011;10708;50.824;4.408;2023-05-10T11:41:32;533.90;;;193.27;;
21099;SDS011;10708;50.824;4.408;2023-05-10T11:46:34;533.83;;;189.13;;
21099;SDS011;10708;50.824;4.408;2023-05-10T11:51:38;527.50;;;186.33;;
21099;SDS011;10708;50.824;4.408;2023-05-10T11:56:43;516.67;;;175.27;;
21099;SDS011;10708;50.824;4.408;2023-05-10T12:01:46;542.87;;;185.93;;
21099;SDS011;10708;50.824;4.408;2023-05-10T12:06:48;549.47;;;185.90;;
21099;SDS011;10708;50.824;4.408;2023-05-10T12:11:54;555.20;;;177.37;;
21099;SDS011;10708;50.824;4.408;2023-05-10T12:16:57;616.67;;;204.70;;
21099;SDS011;10708;50.824;4.408;2023-05-10T12:21:59;610.90;;;206.77;;
21099;SDS011;10708;50.824;4.408;2023-05-10T12:27:05;607.83;;;212.87;;
21099;SDS011;10708;50.824;4.408;2023-05-10T12:32:09;644.87;;;235.33;;
21099;SDS011;10708;50.824;4.408;2023-05-10T12:37:11;615.63;;;217.60;;
21099;SDS011;10708;50.824;4.408;2023-05-10T12:42:15;664.23;;;230.33;;
21099;SDS011;10708;50.824;4.408;2023-05-10T12:47:18;664.47;;;256.73;;
21099;SDS011;10708;50.824;4.408;2023-05-10T12:52:20;649.77;;;230.80;;
21099;SDS011;10708;50.824;4.408;2023-05-10T12:57:23;657.87;;;235.73;;
21099;SDS011;10708;50.824;4.408;2023-05-10T13:02:25;675.40;;;241.73;;
21099;SDS011;10708;50.824;4.408;2023-05-10T13:07:27;662.83;;;230.97;;
21099;SDS011;10708;50.824;4.408;2023-05-10T13:12:30;656.93;;;248.03;;
21099;SDS011;10708;50.824;4.408;2023-05-10T13:17:33;635.73;;;227.83;;
21099;SDS011;10708;50.824;4.408;2023-05-10T13:22:35;667.17;;;243.80;;
21099;SDS011;10708;50.824;4.408;2023-05-10T13:27:38;647.57;;;241.23;;
21099;SDS011;10708;50.824;4.408;2023-05-10T13:32:40;692.33;;;298.00;;
21099;SDS011;10708;50.824;4.408;2023-05-10T13:37:42;692.33;;;273.07;;
21099;SDS011;10708;50.824;4.408;2023-05-10T13:42:45;661.87;;;241.07;;
21099;SDS011;10708;50.824;4.408;2023-05-10T13:47:47;768.07;;;338.30;;
21099;SDS011;10708;50.824;4.408;2023-05-10T13:52:49;731.27;;;311.20;;
21099;SDS011;10708;50.824;4.408;2023-05-10T13:57:53;707.20;;;276.37;;
21099;SDS011;10708;50.824;4.408;2023-05-10T14:02:55;797.23;;;351.07;;
21099;SDS011;10708;50.824;4.408;2023-05-10T14:07:57;698.37;;;260.93;;
21099;SDS011;10708;50.824;4.408;2023-05-10T14:13:00;699.77;;;279.60;;
21099;SDS011;10708;50.824;4.408;2023-05-10T14:18:02;684.47;;;255.00;;
21099;SDS011;10708;50.824;4.408;2023-05-10T14:23:04;664.87;;;232.67;;
21099;SDS011;10708;50.824;4.408;2023-05-10T14:28:08;678.93;;;260.43;;
21099;SDS011;10708;50.824;4.408;2023-05-10T14:33:10;669.07;;;266.37;;
21099;SDS011;10708;50.824;4.408;2023-05-10T14:38:12;614.17;;;183.57;;
21099;SDS011;10708;50.824;4.408;2023-05-10T14:43:15;636.53;;;207.83;;
21099;SDS011;10708;50.824;4.408;2023-05-10T14:48:18;619.13;;;200.83;;
21099;SDS011;10708;50.824;4.408;2023-05-10T14:53:21;645.80;;;209.40;;
21099;SDS011;10708;50.824;4.408;2023-05-10T14:58:24;607.53;;;182.40;;
21099;SDS011;10708;50.824;4.408;2023-05-10T15:03:27;594.53;;;199.53;;
21099;SDS011;10708;50.824;4.408;2023-05-10T15:08:29;607.17;;;194.63;;
21099;SDS011;10708;50.824;4.408;2023-05-10T15:13:32;563.47;;;179.53;;
21099;SDS011;10708;50.824;4.408;2023-05-10T15:18:34;590.43;;;186.83;;
21099;SDS011;10708;50.824;4.408;2023-05-10T15:23:36;540.93;;;166.77;;
21099;SDS011;10708;50.824;4.408;2023-05-10T15:28:40;535.33;;;155.10;;
21099;SDS011;10708;50.824;4.408;2023-05-10T15:33:42;523.63;;;152.70;;
21099;SDS011;10708;50.824;4.408;2023-05-10T15:38:43;530.77;;;158.27;;
21099;SDS011;10708;50.824;4.408;2023-05-10T15:43:47;513.97;;;144.73;;
21099;SDS011;10708;50.824;4.408;2023-05-10T15:48:49;515.40;;;148.80;;
21099;SDS011;10708;50.824;4.408;2023-05-10T15:53:51;512.50;;;151.90;;
21099;SDS011;10708;50.824;4.408;2023-05-10T15:58:54;498.77;;;151.03;;
21099;SDS011;10708;50.824;4.408;2023-05-10T16:03:56;497.30;;;147.40;;
21099;SDS011;10708;50.824;4.408;2023-05-10T16:08:58;490.50;;;140.83;;
21099;SDS011;10708;50.824;4.408;2023-05-10T16:14:01;501.53;;;151.13;;
21099;SDS011;10708;50.824;4.408;2023-05-10T16:19:04;496.73;;;146.40;;
21099;SDS011;10708;50.824;4.408;2023-05-10T16:24:08;520.27;;;151.47;;
21099;SDS011;10708;50.824;4.408;2023-05-10T16:29:16;499.23;;;146.83;;
21099;SDS011;10708;50.824;4.408;2023-05-10T16:34:23;500.33;;;147.13;;
21099;SDS011;10708;50.824;4.408;2023-05-10T16:39:25;524.63;;;163.53;;
21099;SDS011;10708;50.824;4.408;2023-05-10T16:44:29;539.10;;;165.67;;
21099;SDS011;10708;50.824;4.408;2023-05-10T16:49:31;554.73;;;165.23;;
21099;SDS011;10708;50.824;4.408;2023-05-10T16:54:34;538.87;;;155.90;;
21099;SDS011;10708;50.824;4.408;2023-05-10T16:59:37;549.63;;;192.67;;
21099;SDS011;10708;50.824;4.408;2023-05-10T17:04:41;530.67;;;162.73;;
21099;SDS011;10708;50.824;4.408;2023-05-10T17:09:43;517.63;;;155.60;;
21099;SDS011;10708;50.824;4.408;2023-05-10T17:14:47;508.57;;;148.77;;
21099;SDS011;10708;50.824;4.408;2023-05-10T17:19:49;511.43;;;149.73;;
21099;SDS011;10708;50.824;4.408;2023-05-10T17:24:51;513.03;;;159.80;;
21099;SDS011;10708;50.824;4.408;2023-05-10T17:29:55;520.10;;;155.77;;
21099;SDS011;10708;50.824;4.408;2023-05-10T17:34:58;523.40;;;149.33;;
21099;SDS011;10708;50.824;4.408;2023-05-10T17:40:00;533.43;;;155.87;;
21099;SDS011;10708;50.824;4.408;2023-05-10T17:45:07;528.07;;;155.60;;
21099;SDS011;10708;50.824;4.408;2023-05-10T17:50:12;524.60;;;159.93;;
21099;SDS011;10708;50.824;4.408;2023-05-10T17:55:14;509.73;;;145.63;;
21099;SDS011;10708;50.824;4.408;2023-05-10T18:00:18;492.90;;;144.83;;
21099;SDS011;10708;50.824;4.408;2023-05-10T18:05:20;482.20;;;158.33;;
21099;SDS011;10708;50.824;4.408;2023-05-10T18:10:23;486.10;;;151.70;;
21099;SDS011;10708;50.824;4.408;2023-05-10T18:15:27;476.93;;;148.20;;
21099;SDS011;10708;50.824;4.408;2023-05-10T18:20:29;481.90;;;158.53;;
21099;SDS011;10708;50.824;4.408;2023-05-10T18:25:31;478.53;;;149.87;;
21099;SDS011;10708;50.824;4.408;2023-05-10T18:30:35;495.23;;;152.57;;
21099;SDS011;10708;50.824;4.408;2023-05-10T18:35:40;457.83;;;143.07;;
21099;SDS011;10708;50.824;4.408;2023-05-10T18:40:43;450.67;;;149.97;;
21099;SDS011;10708;50.824;4.408;2023-05-10T18:45:47;461.00;;;145.40;;
21099;SDS011;10708;50.824;4.408;2023-05-10T18:50:53;471.27;;;148.37;;
21099;SDS011;10708;50.824;4.408;2023-05-10T18:55:55;462.93;;;149.27;;
21099;SDS011;10708;50.824;4.408;2023-05-10T19:06:08;490.73;;;148.40;;
21099;SDS011;10708;50.824;4.408;2023-05-10T19:11:11;469.30;;;142.47;;
21099;SDS011;10708;50.824;4.408;2023-05-10T19:16:14;455.30;;;143.37;;
21099;SDS011;10708;50.824;4.408;2023-05-10T19:21:18;463.23;;;149.63;;
21099;SDS011;10708;50.824;4.408;2023-05-10T19:26:20;454.83;;;147.87;;
21099;SDS011;10708;50.824;4.408;2023-05-10T19:31:27;452.10;;;146.87;;
21099;SDS011;10708;50.824;4.408;2023-05-10T19:36:37;428.00;;;146.57;;
21099;SDS011;10708;50.824;4.408;2023-05-10T19:41:50;503.03;;;144.97;;
21099;SDS011;10708;50.824;4.408;2023-05-10T19:46:52;492.27;;;142.13;;
21099;SDS011;10708;50.824;4.408;2023-05-10T19:51:56;426.87;;;141.70;;
21099;SDS011;10708;50.824;4.408;2023-05-10T19:56:58;432.10;;;138.93;;
21099;SDS011;10708;50.824;4.408;2023-05-10T20:02:01;450.77;;;151.10;;
21099;SDS011;10708;50.824;4.408;2023-05-10T20:07:05;451.97;;;148.33;;
21099;SDS011;10708;50.824;4.408;2023-05-10T20:12:07;435.17;;;139.00;;
21099;SDS011;10708;50.824;4.408;2023-05-10T20:17:12;451.73;;;140.10;;
21099;SDS011;10708;50.824;4.408;2023-05-10T20:22:15;448.63;;;141.57;;
21099;SDS011;10708;50.824;4.408;2023-05-10T20:27:17;456.23;;;139.30;;
21099;SDS011;10708;50.824;4.408;2023-05-10T20:37:45;438.73;;;142.10;;
21099;SDS011;10708;50.824;4.408;2023-05-10T20:42:47;423.37;;;134.53;;
21099;SDS011;10708;50.824;4.408;2023-05-10T20:47:53;451.63;;;142.47;;
21099;SDS011;10708;50.824;4.408;2023-05-10T20:52:56;447.57;;;139.93;;
21099;SDS011;10708;50.824;4.408;2023-05-10T20:57:59;438.50;;;147.07;;
21099;SDS011;10708;50.824;4.408;2023-05-10T21:03:02;455.77;;;148.20;;
21099;SDS011;10708;50.824;4.408;2023-05-10T21:08:05;442.87;;;145.53;;
21099;SDS011;10708;50.824;4.408;2023-05-10T21:13:07;467.63;;;165.87;;
21099;SDS011;10708;50.824;4.408;2023-05-10T21:18:09;459.23;;;148.63;;
21099;SDS011;10708;50.824;4.408;2023-05-10T21:23:13;460.63;;;146.90;;
21099;SDS011;10708;50.824;4.408;2023-05-10T21:28:15;500.07;;;151.83;;
21099;SDS011;10708;50.824;4.408;2023-05-10T21:33:17;466.57;;;151.90;;
21099;SDS011;10708;50.824;4.408;2023-05-10T21:38:20;471.67;;;150.13;;
21099;SDS011;10708;50.824;4.408;2023-05-10T21:43:22;503.97;;;167.87;;
21099;SDS011;10708;50.824;4.408;2023-05-10T21:48:25;452.17;;;164.60;;
21099;SDS011;10708;50.824;4.408;2023-05-10T21:53:28;477.00;;;164.50;;
21099;SDS011;10708;50.824;4.408;2023-05-10T21:58:30;449.33;;;156.43;;
21099;SDS011;10708;50.824;4.408;2023-05-10T22:03:32;465.43;;;175.03;;
21099;SDS011;10708;50.824;4.408;2023-05-10T22:08:35;458.37;;;179.70;;
21099;SDS011;10708;50.824;4.408;2023-05-10T22:13:37;454.27;;;163.07;;
21099;SDS011;10708;50.824;4.408;2023-05-10T22:18:39;465.73;;;167.83;;
21099;SDS011;10708;50.824;4.408;2023-05-10T22:23:43;455.60;;;166.10;;
21099;SDS011;10708;50.824;4.408;2023-05-10T22:28:45;459.23;;;170.53;;
21099;SDS011;10708;50.824;4.408;2023-05-10T22:33:47;466.10;;;167.57;;
21099;SDS011;10708;50.824;4.408;2023-05-10T22:38:50;471.23;;;173.73;;
21099;SDS011;10708;50.824;4.408;2023-05-10T22:43:52;464.27;;;163.87;;
21099;SDS011;10708;50.824;4.408;2023-05-10T22:48:54;479.03;;;173.37;;
21099;SDS011;10708;50.824;4.408;2023-05-10T22:53:58;454.70;;;164.10;;
21099;SDS011;10708;50.824;4.408;2023-05-10T22:59:00;468.03;;;173.53;;
21099;SDS011;10708;50.824;4.408;2023-05-10T23:04:04;456.70;;;175.67;;
21099;SDS011;10708;50.824;4.408;2023-05-10T23:09:08;459.87;;;174.73;;
21099;SDS011;10708;50.824;4.408;2023-05-10T23:14:10;463.20;;;171.47;;
21099;SDS011;10708;50.824;4.408;2023-05-10T23:19:12;453.87;;;166.67;;
21099;SDS011;10708;50.824;4.408;2023-05-10T23:24:16;442.07;;;166.37;;
21099;SDS011;10708;50.824;4.408;2023-05-10T23:29:18;488.10;;;177.23;;
21099;SDS011;10708;50.824;4.408;2023-05-10T23:34:20;486.30;;;172.33;;
21099;SDS011;10708;50.824;4.408;2023-05-10T23:39:23;492.93;;;178.20;;
21099;SDS011;10708;50.824;4.408;2023-05-10T23:44:25;441.73;;;177.73;;
21099;SDS011;10708;50.824;4.408;2023-05-10T23:49:27;448.50;;;173.57;;
21099;SDS011;10708;50.824;4.408;2023-05-10T23:54:30;445.60;;;174.90;;
21099;SDS011;10708;50.824;4.408;2023-05-10T23:59:32;463.50;;;179.03;;
